Portada
METAR-TAF:

METAR-TAF

Aeroports :

Turaif, Aràbia Saudita

latitud: 31-41N, longitud: 038-44E, altitud: 813 m

Observació

L'informe es va fer fa 1 hora i 13 minuts, a les 21:00 UTC
Vent 16 kt del Nord-Oest
Temperatura 26°C
Humitat 45%
Pressió 1012 hPa
Visibilitat 10 km o més
sense núvols per sota de 1500 mi sense presència de cumulonimbus.

METAR: OETR 182100Z 32016KT CAVOK 26/13 Q1012

Hora: 01:13 (22:13 UTC)

Pronòstic

L'informe es va fer fa 11 hores i 13 minuts, a les 11:00 UTC
Pronòstic vàlid del 18 a les 12 UTC al 19 a les 18 UTC
Vent 6 kt del Oest amb ràfegues de 16 kt
Visibilitat 10 km o més
sense núvols per sota de 1500 mi sense presència de cumulonimbus.

TAF: OETR 181100Z 1812/1918 26006G16KT CAVOK

Observacions i pronòstics meteorològics de més de 4000 aeroports (METAR i TAF).

Les estacions disponibles són els punts grocs i vermells al mapa.

Posi el ratolí al punt desitjat per veure el nom de l'estació.

Feu clic per veure les observacions i els pronòstics meteorològics.

Per canviar el mapa: feu clic els botons verds amb una creu de color negre per apropar; al botó verd amb un guió per allunyar la imatge; o en les fletxes verdes per a mapes adjacents.


METAR-TAF: